RPC12 RPLL-RPLK
Flight info
| Callsign | RPC12 |
|---|---|
| Flight time | 2h 0m |
| Altitude | 8000 |
| Route | TIMON2A TIMON W15 RAGAY RAGAY1B |
| Aircraft | C172/L-SFG/C |
Departure
| Time | 2026-04-15 13:53 |
|---|---|
| Airport | Ninoy Aquino International Airport (RPLL) |
Arrival
| Time | 2026-04-15 15:53 |
|---|---|
| Airport | Bicol International Airport (RPLK) |
| Time | Latitude | Longitude | Altitude | Speed | Heading |
|---|---|---|---|---|---|
| 2026-04-15 13:34 | 14.52720 | 121.00180 | 24 ft | 0 kts | 178° |
| 2026-04-15 13:51 | 14.52706 | 121.00180 | 24 ft | 5 kts | 179° |
| 2026-04-15 13:51 | 14.52645 | 121.00184 | 24 ft | 12 kts | 172° |
| 2026-04-15 13:51 | 14.52546 | 121.00220 | 25 ft | 17 kts | 141° |
| 2026-04-15 13:51 | 14.52470 | 121.00297 | 27 ft | 14 kts | 136° |
| 2026-04-15 13:52 | 14.52389 | 121.00379 | 27 ft | 18 kts | 133° |
| 2026-04-15 13:52 | 14.52284 | 121.00487 | 28 ft | 27 kts | 135° |
| 2026-04-15 13:52 | 14.52022 | 121.00760 | 108 ft | 66 kts | 137° |
| 2026-04-15 13:52 | 14.51751 | 121.01105 | 384 ft | 65 kts | 135° |
| 2026-04-15 13:53 | 14.51428 | 121.01458 | 613 ft | 70 kts | 134° |
| 2026-04-15 13:53 | 14.51091 | 121.01815 | 844 ft | 72 kts | 140° |
| 2026-04-15 13:53 | 14.50725 | 121.02181 | 1089 ft | 73 kts | 135° |
| 2026-04-15 13:53 | 14.50360 | 121.02551 | 1330 ft | 74 kts | 135° |
| 2026-04-15 13:54 | 14.49982 | 121.02914 | 1565 ft | 74 kts | 133° |
| 2026-04-15 13:54 | 14.49604 | 121.03277 | 1803 ft | 74 kts | 135° |
| 2026-04-15 13:54 | 14.49231 | 121.03641 | 2037 ft | 74 kts | 132° |
| 2026-04-15 13:54 | 14.48845 | 121.04008 | 2245 ft | 77 kts | 135° |
| 2026-04-15 13:55 | 14.48441 | 121.04391 | 2452 ft | 79 kts | 134° |
| 2026-04-15 13:55 | 14.48036 | 121.04764 | 2688 ft | 77 kts | 135° |
| 2026-04-15 13:55 | 14.47635 | 121.05132 | 2907 ft | 77 kts | 134° |
| 2026-04-15 13:55 | 14.47228 | 121.05503 | 3122 ft | 78 kts | 134° |
| 2026-04-15 13:56 | 14.46808 | 121.05873 | 3337 ft | 80 kts | 134° |
| 2026-04-15 13:56 | 14.46384 | 121.06240 | 3549 ft | 80 kts | 135° |
| 2026-04-15 13:56 | 14.45954 | 121.06610 | 3765 ft | 80 kts | 135° |
| 2026-04-15 13:56 | 14.45526 | 121.06980 | 3979 ft | 80 kts | 134° |
| 2026-04-15 13:57 | 14.45099 | 121.07347 | 4196 ft | 79 kts | 130° |
| 2026-04-15 13:57 | 14.44813 | 121.07807 | 4415 ft | 77 kts | 112° |
| 2026-04-15 13:57 | 14.44572 | 121.08298 | 4633 ft | 77 kts | 111° |
| 2026-04-15 13:57 | 14.44334 | 121.08795 | 4856 ft | 77 kts | 111° |
| 2026-04-15 13:58 | 14.44105 | 121.09285 | 5067 ft | 77 kts | 110° |
| 2026-04-15 13:58 | 14.43874 | 121.09782 | 5263 ft | 77 kts | 109° |
| 2026-04-15 13:58 | 14.43638 | 121.10291 | 5455 ft | 79 kts | 109° |
| 2026-04-15 13:58 | 14.43400 | 121.10808 | 5656 ft | 80 kts | 108° |
| 2026-04-15 13:59 | 14.43160 | 121.11327 | 5855 ft | 80 kts | 108° |
| 2026-04-15 13:59 | 14.42917 | 121.11853 | 6044 ft | 81 kts | 107° |
| 2026-04-15 13:59 | 14.42678 | 121.12375 | 6232 ft | 80 kts | 108° |
| 2026-04-15 13:59 | 14.42442 | 121.12894 | 6413 ft | 81 kts | 108° |
| 2026-04-15 14:00 | 14.42205 | 121.13413 | 6593 ft | 80 kts | 107° |
| 2026-04-15 14:00 | 14.41969 | 121.13927 | 6773 ft | 79 kts | 107° |
| 2026-04-15 14:00 | 14.41738 | 121.14436 | 6965 ft | 78 kts | 107° |
| 2026-04-15 14:00 | 14.41509 | 121.14943 | 7152 ft | 78 kts | 107° |
| 2026-04-15 14:01 | 14.41032 | 121.15990 | 7506 ft | 82 kts | 107° |
| 2026-04-15 14:01 | 14.40790 | 121.16523 | 7657 ft | 84 kts | 108° |
| 2026-04-15 14:01 | 14.40535 | 121.17080 | 7799 ft | 86 kts | 108° |
| 2026-04-15 14:02 | 14.40277 | 121.17638 | 7965 ft | 86 kts | 108° |
| 2026-04-15 14:02 | 14.40022 | 121.18195 | 8134 ft | 85 kts | 107° |
| 2026-04-15 14:02 | 14.39771 | 121.18742 | 8314 ft | 84 kts | 108° |
| 2026-04-15 14:02 | 14.39521 | 121.19286 | 8491 ft | 83 kts | 107° |
| 2026-04-15 14:03 | 14.39276 | 121.19826 | 8668 ft | 83 kts | 108° |
| 2026-04-15 14:03 | 14.39031 | 121.20364 | 8844 ft | 83 kts | 108° |
| 2026-04-15 14:03 | 14.38781 | 121.20917 | 8965 ft | 88 kts | 108° |
| 2026-04-15 14:03 | 14.38501 | 121.21533 | 8990 ft | 100 kts | 109° |
| 2026-04-15 14:04 | 14.38203 | 121.22175 | 8982 ft | 97 kts | 110° |
| 2026-04-15 14:04 | 14.37914 | 121.22784 | 8980 ft | 92 kts | 109° |
| 2026-04-15 14:04 | 14.37639 | 121.23380 | 8982 ft | 90 kts | 109° |
| 2026-04-15 14:04 | 14.37373 | 121.23959 | 8982 ft | 89 kts | 109° |
| 2026-04-15 14:05 | 14.37107 | 121.24541 | 8983 ft | 90 kts | 108° |
| 2026-04-15 14:05 | 14.36835 | 121.25140 | 8981 ft | 96 kts | 109° |
| 2026-04-15 14:05 | 14.36548 | 121.25770 | 8977 ft | 94 kts | 110° |
| 2026-04-15 14:05 | 14.36272 | 121.26365 | 8972 ft | 90 kts | 109° |
| 2026-04-15 14:06 | 14.36007 | 121.26945 | 8975 ft | 88 kts | 109° |
| 2026-04-15 14:06 | 14.35747 | 121.27518 | 8984 ft | 90 kts | 109° |
| 2026-04-15 14:06 | 14.35476 | 121.28117 | 8988 ft | 92 kts | 109° |
| 2026-04-15 14:06 | 14.35204 | 121.28712 | 8993 ft | 92 kts | 109° |
| 2026-04-15 14:07 | 14.34930 | 121.29308 | 8991 ft | 92 kts | 109° |
| 2026-04-15 14:07 | 14.34659 | 121.29902 | 8990 ft | 91 kts | 109° |
| 2026-04-15 14:07 | 14.34380 | 121.30512 | 8992 ft | 97 kts | 109° |
| 2026-04-15 14:07 | 14.34085 | 121.31168 | 8988 ft | 104 kts | 109° |
| 2026-04-15 14:08 | 14.33773 | 121.31848 | 8985 ft | 105 kts | 110° |
| 2026-04-15 14:08 | 14.33455 | 121.32536 | 8987 ft | 105 kts | 109° |
| 2026-04-15 14:08 | 14.33145 | 121.33214 | 8985 ft | 105 kts | 110° |
| 2026-04-15 14:08 | 14.32833 | 121.33891 | 8984 ft | 103 kts | 110° |
| 2026-04-15 14:09 | 14.32536 | 121.34536 | 8982 ft | 94 kts | 110° |
| 2026-04-15 14:09 | 14.32261 | 121.35131 | 8982 ft | 90 kts | 109° |
| 2026-04-15 14:09 | 14.31996 | 121.35707 | 8986 ft | 87 kts | 109° |
| 2026-04-15 14:09 | 14.31742 | 121.36269 | 8986 ft | 86 kts | 108° |
| 2026-04-15 14:10 | 14.31486 | 121.36833 | 8988 ft | 85 kts | 108° |
| 2026-04-15 14:10 | 14.31232 | 121.37392 | 8992 ft | 87 kts | 108° |
| 2026-04-15 14:10 | 14.30971 | 121.37967 | 8993 ft | 89 kts | 109° |
| 2026-04-15 14:10 | 14.30702 | 121.38555 | 8992 ft | 89 kts | 108° |
| 2026-04-15 14:11 | 14.30435 | 121.39140 | 8989 ft | 91 kts | 108° |
| 2026-04-15 14:11 | 14.30165 | 121.39726 | 8990 ft | 91 kts | 108° |
| 2026-04-15 14:11 | 14.29893 | 121.40324 | 8991 ft | 92 kts | 109° |
| 2026-04-15 14:11 | 14.29614 | 121.40930 | 8991 ft | 92 kts | 109° |
| 2026-04-15 14:12 | 14.29341 | 121.41528 | 8991 ft | 92 kts | 109° |
| 2026-04-15 14:12 | 14.29068 | 121.42127 | 8991 ft | 92 kts | 109° |
| 2026-04-15 14:12 | 14.28791 | 121.42729 | 8992 ft | 92 kts | 109° |
| 2026-04-15 14:12 | 14.28518 | 121.43327 | 8993 ft | 92 kts | 109° |
| 2026-04-15 14:13 | 14.28243 | 121.43925 | 8993 ft | 92 kts | 109° |
| 2026-04-15 14:13 | 14.27970 | 121.44521 | 8994 ft | 92 kts | 109° |
| 2026-04-15 14:13 | 14.27692 | 121.45126 | 8993 ft | 92 kts | 109° |
| 2026-04-15 14:13 | 14.27417 | 121.45722 | 8992 ft | 92 kts | 109° |
| 2026-04-15 14:14 | 14.27142 | 121.46321 | 8992 ft | 92 kts | 109° |
| 2026-04-15 14:14 | 14.26866 | 121.46923 | 8991 ft | 93 kts | 109° |
| 2026-04-15 14:14 | 14.26585 | 121.47531 | 8991 ft | 93 kts | 109° |
| 2026-04-15 14:14 | 14.26308 | 121.48132 | 8989 ft | 93 kts | 108° |
| 2026-04-15 14:15 | 14.26030 | 121.48736 | 8985 ft | 93 kts | 108° |
| 2026-04-15 14:15 | 14.25753 | 121.49344 | 8985 ft | 93 kts | 109° |
| 2026-04-15 14:15 | 14.25477 | 121.49944 | 8985 ft | 93 kts | 109° |
| 2026-04-15 14:15 | 14.25198 | 121.50550 | 8988 ft | 92 kts | 108° |
| 2026-04-15 14:16 | 14.24924 | 121.51152 | 8988 ft | 93 kts | 109° |
| 2026-04-15 14:16 | 14.24645 | 121.51759 | 8988 ft | 93 kts | 109° |
| 2026-04-15 14:16 | 14.24369 | 121.52360 | 8985 ft | 93 kts | 109° |
| 2026-04-15 14:16 | 14.24094 | 121.52961 | 8987 ft | 93 kts | 109° |
| 2026-04-15 14:17 | 14.23815 | 121.53567 | 8986 ft | 93 kts | 108° |
| 2026-04-15 14:17 | 14.23538 | 121.54170 | 8987 ft | 92 kts | 109° |
| 2026-04-15 14:17 | 14.23261 | 121.54775 | 8987 ft | 93 kts | 109° |
| 2026-04-15 14:17 | 14.22985 | 121.55377 | 8985 ft | 93 kts | 109° |
| 2026-04-15 14:18 | 14.22709 | 121.55977 | 8986 ft | 92 kts | 108° |
| 2026-04-15 14:18 | 14.22434 | 121.56577 | 8986 ft | 92 kts | 108° |
| 2026-04-15 14:18 | 14.22157 | 121.57180 | 8987 ft | 93 kts | 109° |
| 2026-04-15 14:18 | 14.21883 | 121.57780 | 8988 ft | 93 kts | 109° |
| 2026-04-15 14:19 | 14.21608 | 121.58379 | 8989 ft | 93 kts | 109° |
| 2026-04-15 14:19 | 14.21330 | 121.58985 | 8989 ft | 93 kts | 109° |
| 2026-04-15 14:19 | 14.21052 | 121.59589 | 8988 ft | 93 kts | 109° |
| 2026-04-15 14:19 | 14.20775 | 121.60191 | 8989 ft | 93 kts | 108° |
| 2026-04-15 14:20 | 14.20501 | 121.60790 | 8988 ft | 92 kts | 109° |
| 2026-04-15 14:20 | 14.20226 | 121.61391 | 8988 ft | 92 kts | 109° |
| 2026-04-15 14:20 | 14.19952 | 121.61989 | 8988 ft | 92 kts | 108° |
| 2026-04-15 14:20 | 14.19677 | 121.62588 | 8989 ft | 92 kts | 109° |
| 2026-04-15 14:21 | 14.19399 | 121.63193 | 8989 ft | 92 kts | 109° |
| 2026-04-15 14:21 | 14.19124 | 121.63792 | 8990 ft | 92 kts | 109° |
| 2026-04-15 14:21 | 14.18847 | 121.64394 | 8991 ft | 92 kts | 109° |
| 2026-04-15 14:21 | 14.18572 | 121.64995 | 8992 ft | 93 kts | 109° |
| 2026-04-15 14:22 | 14.18294 | 121.65598 | 8994 ft | 93 kts | 109° |
| 2026-04-15 14:22 | 14.18018 | 121.66202 | 8996 ft | 93 kts | 109° |
| 2026-04-15 14:22 | 14.17740 | 121.66805 | 8998 ft | 93 kts | 109° |
| 2026-04-15 14:22 | 14.17464 | 121.67405 | 8998 ft | 93 kts | 109° |
| 2026-04-15 14:23 | 14.17187 | 121.68008 | 8999 ft | 93 kts | 108° |
| 2026-04-15 14:23 | 14.16907 | 121.68617 | 9000 ft | 93 kts | 109° |
| 2026-04-15 14:23 | 14.16630 | 121.69219 | 9000 ft | 93 kts | 109° |
| 2026-04-15 14:23 | 14.16353 | 121.69821 | 8998 ft | 93 kts | 109° |
| 2026-04-15 14:24 | 14.16075 | 121.70428 | 8998 ft | 93 kts | 109° |
| 2026-04-15 14:24 | 14.15799 | 121.71028 | 8999 ft | 93 kts | 108° |
| 2026-04-15 14:24 | 14.15520 | 121.71636 | 9002 ft | 93 kts | 109° |
| 2026-04-15 14:24 | 14.15244 | 121.72235 | 9007 ft | 93 kts | 108° |
| 2026-04-15 14:25 | 14.14968 | 121.72837 | 9009 ft | 93 kts | 108° |
| 2026-04-15 14:25 | 14.14691 | 121.73443 | 9011 ft | 93 kts | 109° |
| 2026-04-15 14:25 | 14.14412 | 121.74049 | 9007 ft | 94 kts | 109° |
| 2026-04-15 14:25 | 14.14132 | 121.74654 | 9005 ft | 94 kts | 109° |
| 2026-04-15 14:26 | 14.13850 | 121.75269 | 9002 ft | 93 kts | 109° |
| 2026-04-15 14:26 | 14.13573 | 121.75871 | 8998 ft | 93 kts | 109° |
| 2026-04-15 14:26 | 14.13294 | 121.76474 | 8999 ft | 93 kts | 109° |
| 2026-04-15 14:26 | 14.13016 | 121.77081 | 9000 ft | 93 kts | 109° |
| 2026-04-15 14:27 | 14.12737 | 121.77687 | 8998 ft | 93 kts | 108° |
| 2026-04-15 14:27 | 14.12456 | 121.78298 | 8996 ft | 93 kts | 108° |
| 2026-04-15 14:27 | 14.12180 | 121.78899 | 8995 ft | 93 kts | 108° |
| 2026-04-15 14:27 | 14.11900 | 121.79511 | 8994 ft | 93 kts | 108° |
| 2026-04-15 14:28 | 14.11623 | 121.80112 | 8995 ft | 93 kts | 108° |
| 2026-04-15 14:28 | 14.11342 | 121.80720 | 8993 ft | 93 kts | 109° |
| 2026-04-15 14:28 | 14.11065 | 121.81322 | 8993 ft | 93 kts | 109° |
| 2026-04-15 14:28 | 14.10785 | 121.81928 | 8992 ft | 92 kts | 108° |
| 2026-04-15 14:29 | 14.10511 | 121.82524 | 8992 ft | 92 kts | 108° |
| 2026-04-15 14:29 | 14.10234 | 121.83127 | 8991 ft | 92 kts | 108° |
| 2026-04-15 14:29 | 14.09961 | 121.83720 | 8988 ft | 92 kts | 108° |
| 2026-04-15 14:29 | 14.09684 | 121.84322 | 8987 ft | 92 kts | 108° |
| 2026-04-15 14:30 | 14.09411 | 121.84917 | 8988 ft | 92 kts | 108° |
| 2026-04-15 14:30 | 14.09133 | 121.85518 | 8987 ft | 92 kts | 109° |
| 2026-04-15 14:30 | 14.08859 | 121.86115 | 8988 ft | 92 kts | 108° |
| 2026-04-15 14:30 | 14.08580 | 121.86719 | 8989 ft | 93 kts | 108° |
| 2026-04-15 14:31 | 14.08305 | 121.87318 | 8991 ft | 93 kts | 108° |
| 2026-04-15 14:31 | 14.08024 | 121.87929 | 8992 ft | 94 kts | 109° |
| 2026-04-15 14:31 | 14.07746 | 121.88533 | 8991 ft | 94 kts | 109° |
| 2026-04-15 14:31 | 14.07465 | 121.89143 | 8988 ft | 93 kts | 109° |
| 2026-04-15 14:32 | 14.07186 | 121.89751 | 8985 ft | 93 kts | 109° |
| 2026-04-15 14:32 | 14.06910 | 121.90346 | 8985 ft | 92 kts | 108° |
| 2026-04-15 14:32 | 14.06635 | 121.90942 | 8985 ft | 92 kts | 109° |
| 2026-04-15 14:32 | 14.06358 | 121.91544 | 8986 ft | 92 kts | 108° |
| 2026-04-15 14:33 | 14.06084 | 121.92140 | 8985 ft | 92 kts | 108° |
| 2026-04-15 14:33 | 14.05806 | 121.92744 | 8985 ft | 93 kts | 108° |
| 2026-04-15 14:33 | 14.05531 | 121.93343 | 8982 ft | 93 kts | 109° |
| 2026-04-15 14:33 | 14.05223 | 121.93939 | 8980 ft | 95 kts | 118° |
| 2026-04-15 14:34 | 14.04912 | 121.94521 | 8980 ft | 93 kts | 109° |
| 2026-04-15 14:34 | 14.04618 | 121.95128 | 8981 ft | 93 kts | 109° |
| 2026-04-15 14:34 | 14.04331 | 121.95725 | 8977 ft | 93 kts | 109° |
| 2026-04-15 14:34 | 14.04037 | 121.96327 | 8977 ft | 93 kts | 110° |
| 2026-04-15 14:35 | 14.03749 | 121.96919 | 8976 ft | 93 kts | 110° |
| 2026-04-15 14:35 | 14.03453 | 121.97521 | 8977 ft | 93 kts | 110° |
| 2026-04-15 14:35 | 14.03160 | 121.98113 | 8975 ft | 93 kts | 110° |
| 2026-04-15 14:35 | 14.02862 | 121.98716 | 8969 ft | 93 kts | 110° |
| 2026-04-15 14:36 | 14.02568 | 121.99307 | 8970 ft | 92 kts | 110° |
| 2026-04-15 14:36 | 14.02276 | 121.99894 | 8969 ft | 93 kts | 110° |
| 2026-04-15 14:36 | 14.01979 | 122.00491 | 8970 ft | 93 kts | 110° |
| 2026-04-15 14:36 | 14.01681 | 122.01090 | 8968 ft | 93 kts | 109° |
| 2026-04-15 14:37 | 14.01384 | 122.01686 | 8970 ft | 94 kts | 109° |
| 2026-04-15 14:37 | 14.01088 | 122.02280 | 8970 ft | 94 kts | 110° |
| 2026-04-15 14:37 | 14.00787 | 122.02887 | 8971 ft | 94 kts | 110° |
| 2026-04-15 14:37 | 14.00489 | 122.03482 | 8971 ft | 94 kts | 110° |
| 2026-04-15 14:38 | 14.00188 | 122.04090 | 8971 ft | 94 kts | 110° |
| 2026-04-15 14:38 | 13.99890 | 122.04685 | 8971 ft | 94 kts | 111° |
| 2026-04-15 14:38 | 13.99591 | 122.05283 | 8969 ft | 94 kts | 110° |
| 2026-04-15 14:38 | 13.99289 | 122.05885 | 8969 ft | 93 kts | 110° |
| 2026-04-15 14:39 | 13.98993 | 122.06476 | 8969 ft | 93 kts | 110° |
| 2026-04-15 14:39 | 13.98694 | 122.07072 | 8968 ft | 93 kts | 110° |
| 2026-04-15 14:39 | 13.98398 | 122.07666 | 8968 ft | 93 kts | 110° |
| 2026-04-15 14:39 | 13.98097 | 122.08269 | 8968 ft | 94 kts | 110° |
| 2026-04-15 14:40 | 13.97799 | 122.08868 | 8969 ft | 94 kts | 110° |
| 2026-04-15 14:40 | 13.97497 | 122.09474 | 8970 ft | 94 kts | 110° |
| 2026-04-15 14:40 | 13.97199 | 122.10070 | 8970 ft | 94 kts | 110° |
| 2026-04-15 14:40 | 13.96895 | 122.10676 | 8971 ft | 94 kts | 110° |
| 2026-04-15 14:41 | 13.96596 | 122.11276 | 8970 ft | 94 kts | 111° |
| 2026-04-15 14:41 | 13.96295 | 122.11877 | 8971 ft | 94 kts | 110° |
| 2026-04-15 14:41 | 13.95997 | 122.12472 | 8971 ft | 94 kts | 110° |
| 2026-04-15 14:41 | 13.95695 | 122.13075 | 8972 ft | 93 kts | 110° |
| 2026-04-15 14:42 | 13.95396 | 122.13669 | 8974 ft | 93 kts | 110° |
| 2026-04-15 14:42 | 13.95101 | 122.14258 | 8974 ft | 93 kts | 110° |
| 2026-04-15 14:42 | 13.94802 | 122.14855 | 8973 ft | 93 kts | 110° |
| 2026-04-15 14:42 | 13.94508 | 122.15447 | 8974 ft | 93 kts | 110° |
| 2026-04-15 14:43 | 13.94208 | 122.16047 | 8975 ft | 93 kts | 110° |
| 2026-04-15 14:43 | 13.93911 | 122.16638 | 8979 ft | 93 kts | 110° |
| 2026-04-15 14:43 | 13.93615 | 122.17230 | 8985 ft | 93 kts | 110° |
| 2026-04-15 14:43 | 13.93314 | 122.17833 | 8989 ft | 93 kts | 110° |
| 2026-04-15 14:44 | 13.93018 | 122.18426 | 8994 ft | 94 kts | 110° |
| 2026-04-15 14:44 | 13.92718 | 122.19027 | 8995 ft | 94 kts | 110° |
| 2026-04-15 14:44 | 13.92417 | 122.19629 | 8994 ft | 94 kts | 111° |
| 2026-04-15 14:44 | 13.92155 | 122.20235 | 8992 ft | 91 kts | 97° |
| 2026-04-15 14:45 | 13.91915 | 122.20842 | 8993 ft | 93 kts | 111° |
| 2026-04-15 14:45 | 13.91598 | 122.21432 | 8990 ft | 94 kts | 111° |
| 2026-04-15 14:45 | 13.91292 | 122.22031 | 8986 ft | 94 kts | 111° |
| 2026-04-15 14:45 | 13.90987 | 122.22623 | 8983 ft | 94 kts | 111° |
| 2026-04-15 14:46 | 13.90680 | 122.23227 | 8981 ft | 94 kts | 111° |
| 2026-04-15 14:46 | 13.90379 | 122.23820 | 8981 ft | 94 kts | 110° |
| 2026-04-15 14:46 | 13.90074 | 122.24422 | 8982 ft | 94 kts | 110° |
| 2026-04-15 14:46 | 13.89772 | 122.25022 | 8980 ft | 94 kts | 111° |
| 2026-04-15 14:47 | 13.89465 | 122.25626 | 8980 ft | 94 kts | 110° |
| 2026-04-15 14:47 | 13.89163 | 122.26225 | 8980 ft | 94 kts | 110° |
| 2026-04-15 14:47 | 13.88858 | 122.26828 | 8979 ft | 94 kts | 110° |
| 2026-04-15 14:47 | 13.88561 | 122.27420 | 8978 ft | 93 kts | 110° |
| 2026-04-15 14:48 | 13.88259 | 122.28017 | 8980 ft | 93 kts | 110° |
| 2026-04-15 14:48 | 13.87960 | 122.28609 | 8980 ft | 92 kts | 110° |
| 2026-04-15 14:48 | 13.87667 | 122.29195 | 8981 ft | 93 kts | 110° |
| 2026-04-15 14:48 | 13.87370 | 122.29784 | 8981 ft | 93 kts | 110° |
| 2026-04-15 14:49 | 13.87072 | 122.30379 | 8981 ft | 93 kts | 110° |
| 2026-04-15 14:49 | 13.86771 | 122.30978 | 8982 ft | 93 kts | 110° |
| 2026-04-15 14:49 | 13.86474 | 122.31570 | 8983 ft | 94 kts | 110° |
| 2026-04-15 14:49 | 13.86167 | 122.32177 | 8982 ft | 94 kts | 110° |
| 2026-04-15 14:50 | 13.85868 | 122.32775 | 8982 ft | 95 kts | 110° |
| 2026-04-15 14:50 | 13.85561 | 122.33384 | 8983 ft | 95 kts | 110° |
| 2026-04-15 14:50 | 13.85258 | 122.33984 | 8984 ft | 95 kts | 110° |
| 2026-04-15 14:50 | 13.84957 | 122.34583 | 8984 ft | 94 kts | 110° |
| 2026-04-15 14:51 | 13.84656 | 122.35180 | 8983 ft | 94 kts | 110° |
| 2026-04-15 14:51 | 13.84353 | 122.35785 | 8983 ft | 93 kts | 110° |
| 2026-04-15 14:51 | 13.84056 | 122.36375 | 8983 ft | 93 kts | 110° |
| 2026-04-15 14:51 | 13.83756 | 122.36970 | 8983 ft | 93 kts | 110° |
| 2026-04-15 14:52 | 13.83456 | 122.37565 | 8983 ft | 93 kts | 110° |
| 2026-04-15 14:52 | 13.83154 | 122.38165 | 8983 ft | 93 kts | 110° |
| 2026-04-15 14:52 | 13.82859 | 122.38754 | 8983 ft | 93 kts | 110° |
| 2026-04-15 14:52 | 13.82558 | 122.39352 | 8983 ft | 94 kts | 110° |
| 2026-04-15 14:53 | 13.82256 | 122.39951 | 8984 ft | 94 kts | 110° |
| 2026-04-15 14:53 | 13.81953 | 122.40554 | 8983 ft | 94 kts | 110° |
| 2026-04-15 14:53 | 13.81651 | 122.41157 | 8981 ft | 95 kts | 110° |
| 2026-04-15 14:53 | 13.81349 | 122.41756 | 8978 ft | 95 kts | 111° |
| 2026-04-15 14:54 | 13.81046 | 122.42357 | 8977 ft | 95 kts | 111° |
| 2026-04-15 14:54 | 13.80741 | 122.42962 | 8977 ft | 94 kts | 110° |
| 2026-04-15 14:54 | 13.80436 | 122.43563 | 8976 ft | 94 kts | 110° |
| 2026-04-15 14:54 | 13.80135 | 122.44162 | 8976 ft | 94 kts | 110° |
| 2026-04-15 14:55 | 13.79831 | 122.44763 | 8976 ft | 94 kts | 110° |
| 2026-04-15 14:55 | 13.79531 | 122.45358 | 8975 ft | 94 kts | 110° |
| 2026-04-15 14:55 | 13.79233 | 122.45951 | 8974 ft | 94 kts | 110° |
| 2026-04-15 14:55 | 13.78932 | 122.46552 | 8974 ft | 94 kts | 110° |
| 2026-04-15 14:56 | 13.78632 | 122.47145 | 8974 ft | 94 kts | 110° |
| 2026-04-15 14:56 | 13.78329 | 122.47748 | 8973 ft | 94 kts | 110° |
| 2026-04-15 14:56 | 13.78026 | 122.48351 | 8972 ft | 94 kts | 110° |
| 2026-04-15 14:56 | 13.77724 | 122.48949 | 8973 ft | 95 kts | 110° |
| 2026-04-15 14:57 | 13.77418 | 122.49560 | 8972 ft | 95 kts | 111° |
| 2026-04-15 14:57 | 13.77112 | 122.50165 | 8971 ft | 95 kts | 111° |
| 2026-04-15 14:57 | 13.76803 | 122.50778 | 8970 ft | 96 kts | 111° |
| 2026-04-15 14:57 | 13.76498 | 122.51381 | 8969 ft | 95 kts | 110° |
| 2026-04-15 14:58 | 13.76191 | 122.51990 | 8968 ft | 95 kts | 110° |
| 2026-04-15 14:58 | 13.75885 | 122.52594 | 8968 ft | 94 kts | 110° |
| 2026-04-15 14:58 | 13.75584 | 122.53192 | 8968 ft | 94 kts | 110° |
| 2026-04-15 14:58 | 13.75279 | 122.53798 | 8969 ft | 95 kts | 110° |
| 2026-04-15 14:59 | 13.74977 | 122.54395 | 8968 ft | 94 kts | 110° |
| 2026-04-15 14:59 | 13.74672 | 122.55001 | 8968 ft | 95 kts | 110° |
| 2026-04-15 14:59 | 13.74368 | 122.55607 | 8968 ft | 95 kts | 111° |
| 2026-04-15 14:59 | 13.74063 | 122.56212 | 8967 ft | 95 kts | 111° |
| 2026-04-15 15:00 | 13.73758 | 122.56818 | 8968 ft | 95 kts | 111° |
| 2026-04-15 15:00 | 13.73451 | 122.57425 | 8969 ft | 96 kts | 111° |
| 2026-04-15 15:00 | 13.73143 | 122.58036 | 8968 ft | 96 kts | 111° |
| 2026-04-15 15:00 | 13.72786 | 122.58621 | 8967 ft | 97 kts | 118° |
| 2026-04-15 15:01 | 13.72386 | 122.59180 | 8967 ft | 97 kts | 120° |
| 2026-04-15 15:01 | 13.71980 | 122.59744 | 8966 ft | 97 kts | 120° |
| 2026-04-15 15:01 | 13.71573 | 122.60304 | 8965 ft | 97 kts | 119° |
| 2026-04-15 15:01 | 13.71168 | 122.60864 | 8965 ft | 97 kts | 119° |
| 2026-04-15 15:02 | 13.70763 | 122.61423 | 8965 ft | 97 kts | 119° |
| 2026-04-15 15:02 | 13.70364 | 122.61974 | 8969 ft | 97 kts | 120° |
| 2026-04-15 15:02 | 13.69960 | 122.62535 | 8974 ft | 96 kts | 120° |
| 2026-04-15 15:02 | 13.69559 | 122.63090 | 8979 ft | 96 kts | 120° |
| 2026-04-15 15:03 | 13.69158 | 122.63646 | 8984 ft | 97 kts | 120° |
| 2026-04-15 15:03 | 13.68751 | 122.64205 | 8985 ft | 97 kts | 120° |
| 2026-04-15 15:03 | 13.68344 | 122.64767 | 8985 ft | 98 kts | 120° |
| 2026-04-15 15:03 | 13.67940 | 122.65324 | 8985 ft | 98 kts | 121° |
| 2026-04-15 15:04 | 13.67532 | 122.65888 | 8986 ft | 98 kts | 121° |
| 2026-04-15 15:04 | 13.67121 | 122.66453 | 8986 ft | 98 kts | 120° |
| 2026-04-15 15:04 | 13.66711 | 122.67018 | 8985 ft | 98 kts | 121° |
| 2026-04-15 15:04 | 13.66300 | 122.67586 | 8985 ft | 99 kts | 121° |
| 2026-04-15 15:05 | 13.65884 | 122.68157 | 8985 ft | 99 kts | 121° |
| 2026-04-15 15:05 | 13.65469 | 122.68728 | 8987 ft | 99 kts | 121° |
| 2026-04-15 15:05 | 13.65062 | 122.69290 | 8986 ft | 99 kts | 121° |
| 2026-04-15 15:05 | 13.64648 | 122.69861 | 8985 ft | 99 kts | 121° |
| 2026-04-15 15:06 | 13.63822 | 122.70998 | 8984 ft | 99 kts | 121° |
| 2026-04-15 15:06 | 13.63408 | 122.71568 | 8983 ft | 99 kts | 121° |
| 2026-04-15 15:06 | 13.62992 | 122.72142 | 8984 ft | 99 kts | 121° |
| 2026-04-15 15:07 | 13.62582 | 122.72707 | 8984 ft | 99 kts | 121° |
| 2026-04-15 15:07 | 13.62166 | 122.73280 | 8980 ft | 99 kts | 121° |
| 2026-04-15 15:07 | 13.61748 | 122.73853 | 8976 ft | 99 kts | 121° |
| 2026-04-15 15:07 | 13.61337 | 122.74419 | 8971 ft | 99 kts | 120° |
| 2026-04-15 15:08 | 13.60918 | 122.74993 | 8968 ft | 99 kts | 120° |
| 2026-04-15 15:08 | 13.60508 | 122.75559 | 8967 ft | 99 kts | 120° |
| 2026-04-15 15:08 | 13.60095 | 122.76131 | 8968 ft | 99 kts | 121° |
| 2026-04-15 15:08 | 13.59680 | 122.76703 | 8966 ft | 99 kts | 120° |
| 2026-04-15 15:09 | 13.59270 | 122.77269 | 8968 ft | 99 kts | 120° |
| 2026-04-15 15:09 | 13.58856 | 122.77840 | 8969 ft | 99 kts | 121° |
| 2026-04-15 15:09 | 13.58443 | 122.78405 | 8969 ft | 99 kts | 121° |
| 2026-04-15 15:09 | 13.58026 | 122.78978 | 8969 ft | 99 kts | 120° |
| 2026-04-15 15:10 | 13.57619 | 122.79539 | 8968 ft | 99 kts | 120° |
| 2026-04-15 15:10 | 13.57204 | 122.80110 | 8971 ft | 98 kts | 120° |
| 2026-04-15 15:10 | 13.56797 | 122.80669 | 8973 ft | 98 kts | 120° |
| 2026-04-15 15:10 | 13.56385 | 122.81239 | 8977 ft | 98 kts | 120° |
| 2026-04-15 15:11 | 13.55978 | 122.81799 | 8979 ft | 98 kts | 121° |
| 2026-04-15 15:11 | 13.55568 | 122.82365 | 8979 ft | 98 kts | 120° |
| 2026-04-15 15:11 | 13.55154 | 122.82936 | 8979 ft | 99 kts | 121° |
| 2026-04-15 15:11 | 13.54744 | 122.83501 | 8980 ft | 99 kts | 121° |
| 2026-04-15 15:12 | 13.54330 | 122.84069 | 8979 ft | 99 kts | 121° |
| 2026-04-15 15:12 | 13.53910 | 122.84647 | 8979 ft | 100 kts | 120° |
| 2026-04-15 15:12 | 13.53492 | 122.85220 | 8978 ft | 100 kts | 120° |
| 2026-04-15 15:12 | 13.53076 | 122.85793 | 8979 ft | 99 kts | 120° |
| 2026-04-15 15:13 | 13.52661 | 122.86363 | 8977 ft | 99 kts | 120° |
| 2026-04-15 15:13 | 13.52245 | 122.86934 | 8976 ft | 99 kts | 120° |
| 2026-04-15 15:13 | 13.51837 | 122.87495 | 8976 ft | 98 kts | 120° |
| 2026-04-15 15:13 | 13.51426 | 122.88062 | 8976 ft | 98 kts | 120° |
| 2026-04-15 15:14 | 13.51011 | 122.88631 | 8978 ft | 98 kts | 120° |
| 2026-04-15 15:14 | 13.50605 | 122.89193 | 8978 ft | 99 kts | 120° |
| 2026-04-15 15:14 | 13.50191 | 122.89764 | 8979 ft | 99 kts | 121° |
| 2026-04-15 15:14 | 13.49778 | 122.90332 | 8980 ft | 100 kts | 120° |
| 2026-04-15 15:15 | 13.49356 | 122.90910 | 8979 ft | 100 kts | 121° |
| 2026-04-15 15:15 | 13.48942 | 122.91479 | 8978 ft | 100 kts | 120° |
| 2026-04-15 15:15 | 13.48523 | 122.92055 | 8978 ft | 100 kts | 121° |
| 2026-04-15 15:15 | 13.48105 | 122.92629 | 8979 ft | 99 kts | 121° |
| 2026-04-15 15:16 | 13.47692 | 122.93195 | 8977 ft | 99 kts | 120° |
| 2026-04-15 15:16 | 13.47277 | 122.93767 | 8977 ft | 99 kts | 120° |
| 2026-04-15 15:16 | 13.46861 | 122.94338 | 8976 ft | 99 kts | 120° |
| 2026-04-15 15:16 | 13.46450 | 122.94902 | 8976 ft | 99 kts | 120° |
| 2026-04-15 15:17 | 13.46034 | 122.95473 | 8976 ft | 99 kts | 120° |
| 2026-04-15 15:17 | 13.45619 | 122.96045 | 8978 ft | 99 kts | 120° |
| 2026-04-15 15:17 | 13.45209 | 122.96609 | 8980 ft | 100 kts | 120° |
| 2026-04-15 15:17 | 13.44789 | 122.97188 | 8979 ft | 100 kts | 121° |
| 2026-04-15 15:18 | 13.44374 | 122.97758 | 8977 ft | 100 kts | 121° |
| 2026-04-15 15:18 | 13.43950 | 122.98340 | 8973 ft | 100 kts | 121° |
| 2026-04-15 15:18 | 13.43534 | 122.98910 | 8971 ft | 100 kts | 121° |
| 2026-04-15 15:18 | 13.43113 | 122.99488 | 8969 ft | 100 kts | 120° |
| 2026-04-15 15:19 | 13.42697 | 123.00057 | 8970 ft | 100 kts | 120° |
| 2026-04-15 15:19 | 13.42280 | 123.00632 | 8966 ft | 100 kts | 120° |
| 2026-04-15 15:19 | 13.41859 | 123.01208 | 8963 ft | 100 kts | 120° |
| 2026-04-15 15:19 | 13.41446 | 123.01777 | 8960 ft | 100 kts | 121° |
| 2026-04-15 15:20 | 13.41024 | 123.02355 | 8958 ft | 100 kts | 120° |
| 2026-04-15 15:20 | 13.40608 | 123.02927 | 8957 ft | 100 kts | 120° |
| 2026-04-15 15:20 | 13.40194 | 123.03494 | 8957 ft | 99 kts | 120° |
| 2026-04-15 15:20 | 13.39776 | 123.04071 | 8957 ft | 99 kts | 121° |
| 2026-04-15 15:21 | 13.39363 | 123.04637 | 8957 ft | 99 kts | 120° |
| 2026-04-15 15:21 | 13.38945 | 123.05212 | 8956 ft | 99 kts | 120° |
| 2026-04-15 15:21 | 13.38529 | 123.05784 | 8955 ft | 99 kts | 121° |
| 2026-04-15 15:21 | 13.38117 | 123.06350 | 8955 ft | 99 kts | 121° |
| 2026-04-15 15:22 | 13.37698 | 123.06924 | 8957 ft | 99 kts | 121° |
| 2026-04-15 15:22 | 13.37283 | 123.07491 | 8957 ft | 99 kts | 121° |
| 2026-04-15 15:22 | 13.36865 | 123.08061 | 8956 ft | 99 kts | 121° |
| 2026-04-15 15:22 | 13.36453 | 123.08624 | 8956 ft | 99 kts | 121° |
| 2026-04-15 15:23 | 13.36034 | 123.09197 | 8957 ft | 99 kts | 120° |
| 2026-04-15 15:23 | 13.35619 | 123.09763 | 8957 ft | 99 kts | 120° |
| 2026-04-15 15:23 | 13.35203 | 123.10335 | 8956 ft | 99 kts | 120° |
| 2026-04-15 15:23 | 13.34785 | 123.10908 | 8956 ft | 99 kts | 121° |
| 2026-04-15 15:24 | 13.34367 | 123.11478 | 8955 ft | 99 kts | 120° |
| 2026-04-15 15:24 | 13.33954 | 123.12044 | 8956 ft | 99 kts | 121° |
| 2026-04-15 15:24 | 13.33534 | 123.12620 | 8957 ft | 100 kts | 121° |
| 2026-04-15 15:24 | 13.33120 | 123.13187 | 8956 ft | 100 kts | 121° |
| 2026-04-15 15:25 | 13.32699 | 123.13761 | 8956 ft | 100 kts | 121° |
| 2026-04-15 15:25 | 13.32278 | 123.14338 | 8957 ft | 100 kts | 120° |
| 2026-04-15 15:25 | 13.31864 | 123.14904 | 8957 ft | 100 kts | 120° |
| 2026-04-15 15:25 | 13.31442 | 123.15478 | 8957 ft | 100 kts | 121° |
| 2026-04-15 15:26 | 13.31022 | 123.16052 | 8957 ft | 99 kts | 120° |
| 2026-04-15 15:26 | 13.30611 | 123.16615 | 8959 ft | 99 kts | 120° |
| 2026-04-15 15:26 | 13.30195 | 123.17183 | 8963 ft | 99 kts | 120° |
| 2026-04-15 15:26 | 13.29778 | 123.17752 | 8966 ft | 99 kts | 120° |
| 2026-04-15 15:27 | 13.29363 | 123.18321 | 8968 ft | 99 kts | 120° |
| 2026-04-15 15:27 | 13.28952 | 123.18883 | 8969 ft | 99 kts | 120° |
| 2026-04-15 15:27 | 13.28535 | 123.19455 | 8969 ft | 99 kts | 120° |
| 2026-04-15 15:27 | 13.28122 | 123.20019 | 8969 ft | 99 kts | 121° |
| 2026-04-15 15:28 | 13.27709 | 123.20588 | 8970 ft | 99 kts | 120° |
| 2026-04-15 15:28 | 13.27286 | 123.21159 | 8970 ft | 100 kts | 123° |
| 2026-04-15 15:28 | 13.26814 | 123.21686 | 8969 ft | 101 kts | 127° |
| 2026-04-15 15:28 | 13.26321 | 123.22212 | 8969 ft | 101 kts | 128° |
| 2026-04-15 15:29 | 13.25833 | 123.22726 | 8969 ft | 101 kts | 128° |
| 2026-04-15 15:29 | 13.25336 | 123.23246 | 8969 ft | 101 kts | 128° |
| 2026-04-15 15:29 | 13.24839 | 123.23766 | 8968 ft | 101 kts | 128° |
| 2026-04-15 15:29 | 13.24354 | 123.24279 | 8969 ft | 100 kts | 128° |
| 2026-04-15 15:30 | 13.23861 | 123.24796 | 8969 ft | 100 kts | 128° |
| 2026-04-15 15:30 | 13.23369 | 123.25314 | 8969 ft | 100 kts | 128° |
| 2026-04-15 15:30 | 13.22884 | 123.25826 | 8969 ft | 100 kts | 128° |
| 2026-04-15 15:30 | 13.22391 | 123.26345 | 8968 ft | 100 kts | 128° |
| 2026-04-15 15:31 | 13.21901 | 123.26862 | 8969 ft | 100 kts | 128° |
| 2026-04-15 15:31 | 13.21418 | 123.27371 | 8971 ft | 100 kts | 128° |
| 2026-04-15 15:31 | 13.20928 | 123.27889 | 8973 ft | 100 kts | 128° |
| 2026-04-15 15:31 | 13.20434 | 123.28408 | 8974 ft | 101 kts | 128° |
| 2026-04-15 15:32 | 13.19949 | 123.28921 | 8976 ft | 101 kts | 128° |
| 2026-04-15 15:32 | 13.19456 | 123.29439 | 8976 ft | 101 kts | 128° |
| 2026-04-15 15:32 | 13.18962 | 123.29960 | 8978 ft | 101 kts | 128° |
| 2026-04-15 15:32 | 13.18474 | 123.30473 | 8979 ft | 100 kts | 127° |
| 2026-04-15 15:33 | 13.17982 | 123.30993 | 8979 ft | 100 kts | 128° |
| 2026-04-15 15:33 | 13.17497 | 123.31503 | 8979 ft | 100 kts | 127° |
| 2026-04-15 15:33 | 13.17006 | 123.32021 | 8980 ft | 100 kts | 128° |
| 2026-04-15 15:33 | 13.16517 | 123.32536 | 8979 ft | 100 kts | 128° |
| 2026-04-15 15:34 | 13.16025 | 123.33055 | 8979 ft | 101 kts | 128° |
| 2026-04-15 15:34 | 13.15536 | 123.33571 | 8976 ft | 101 kts | 128° |
| 2026-04-15 15:34 | 13.15045 | 123.34088 | 8973 ft | 101 kts | 128° |
| 2026-04-15 15:34 | 13.14553 | 123.34605 | 8969 ft | 101 kts | 128° |
| 2026-04-15 15:35 | 13.14056 | 123.35130 | 8967 ft | 101 kts | 128° |
| 2026-04-15 15:35 | 13.13564 | 123.35648 | 8968 ft | 101 kts | 128° |
| 2026-04-15 15:35 | 13.13069 | 123.36169 | 8969 ft | 101 kts | 128° |
| 2026-04-15 15:35 | 13.12578 | 123.36684 | 8969 ft | 101 kts | 128° |
| 2026-04-15 15:36 | 13.12083 | 123.37206 | 8969 ft | 101 kts | 128° |
| 2026-04-15 15:36 | 13.11596 | 123.37718 | 8969 ft | 101 kts | 128° |
| 2026-04-15 15:36 | 13.11117 | 123.38220 | 8923 ft | 95 kts | 128° |
| 2026-04-15 15:36 | 13.10651 | 123.38707 | 8802 ft | 95 kts | 128° |
| 2026-04-15 15:37 | 13.10180 | 123.39202 | 8686 ft | 98 kts | 129° |
| 2026-04-15 15:37 | 13.09702 | 123.39706 | 8568 ft | 99 kts | 129° |
| 2026-04-15 15:37 | 13.09220 | 123.40212 | 8451 ft | 99 kts | 129° |
| 2026-04-15 15:37 | 13.08734 | 123.40723 | 8332 ft | 99 kts | 129° |
| 2026-04-15 15:38 | 13.08254 | 123.41228 | 8213 ft | 98 kts | 129° |
| 2026-04-15 15:38 | 13.07772 | 123.41734 | 8094 ft | 98 kts | 129° |
| 2026-04-15 15:38 | 13.07292 | 123.42238 | 7975 ft | 98 kts | 129° |
| 2026-04-15 15:38 | 13.06814 | 123.42740 | 7857 ft | 98 kts | 129° |
| 2026-04-15 15:39 | 13.06337 | 123.43241 | 7738 ft | 98 kts | 128° |
| 2026-04-15 15:39 | 13.05861 | 123.43743 | 7620 ft | 98 kts | 128° |
| 2026-04-15 15:39 | 13.05378 | 123.44250 | 7500 ft | 98 kts | 128° |
| 2026-04-15 15:39 | 13.04903 | 123.44752 | 7382 ft | 98 kts | 128° |
| 2026-04-15 15:40 | 13.04388 | 123.45213 | 7265 ft | 101 kts | 149° |
| 2026-04-15 15:40 | 13.03743 | 123.45520 | 7141 ft | 99 kts | 135° |
| 2026-04-15 15:40 | 13.03324 | 123.46054 | 7022 ft | 96 kts | 121° |
| 2026-04-15 15:40 | 13.02887 | 123.46584 | 6905 ft | 97 kts | 127° |
| 2026-04-15 15:41 | 13.02423 | 123.47102 | 6786 ft | 98 kts | 127° |
| 2026-04-15 15:41 | 13.01957 | 123.47619 | 6667 ft | 98 kts | 127° |
| 2026-04-15 15:41 | 13.01495 | 123.48130 | 6549 ft | 98 kts | 127° |
| 2026-04-15 15:41 | 13.01022 | 123.48652 | 6430 ft | 99 kts | 127° |
| 2026-04-15 15:42 | 13.00554 | 123.49168 | 6313 ft | 99 kts | 127° |
| 2026-04-15 15:42 | 13.00081 | 123.49689 | 6195 ft | 99 kts | 127° |
| 2026-04-15 15:42 | 12.99614 | 123.50202 | 6076 ft | 99 kts | 127° |
| 2026-04-15 15:42 | 12.99149 | 123.50716 | 5958 ft | 98 kts | 127° |
| 2026-04-15 15:43 | 12.98680 | 123.51231 | 5838 ft | 97 kts | 127° |
| 2026-04-15 15:43 | 12.98222 | 123.51733 | 5718 ft | 96 kts | 127° |
| 2026-04-15 15:43 | 12.97890 | 123.52299 | 5588 ft | 90 kts | 95° |
| 2026-04-15 15:43 | 12.98007 | 123.52887 | 5462 ft | 84 kts | 57° |
| 2026-04-15 15:44 | 12.98350 | 123.53378 | 5340 ft | 83 kts | 51° |
| 2026-04-15 15:44 | 12.98713 | 123.53837 | 5220 ft | 82 kts | 49° |
| 2026-04-15 15:44 | 12.99063 | 123.54260 | 5101 ft | 70 kts | 49° |
| 2026-04-15 15:44 | 12.99348 | 123.54598 | 4974 ft | 59 kts | 48° |
| 2026-04-15 15:45 | 12.99625 | 123.54916 | 4752 ft | 60 kts | 48° |
| 2026-04-15 15:45 | 12.99904 | 123.55233 | 4512 ft | 60 kts | 48° |
| 2026-04-15 15:45 | 13.00183 | 123.55547 | 4270 ft | 60 kts | 49° |
| 2026-04-15 15:45 | 13.00472 | 123.55872 | 3959 ft | 66 kts | 50° |
| 2026-04-15 15:46 | 13.00785 | 123.56223 | 3602 ft | 69 kts | 50° |
| 2026-04-15 15:46 | 13.01102 | 123.56580 | 3245 ft | 69 kts | 50° |
| 2026-04-15 15:46 | 13.01419 | 123.56936 | 2910 ft | 64 kts | 50° |
| 2026-04-15 15:46 | 13.01700 | 123.57242 | 2819 ft | 62 kts | 47° |
| 2026-04-15 15:47 | 13.02068 | 123.57636 | 2725 ft | 87 kts | 48° |
| 2026-04-15 15:47 | 13.02484 | 123.58092 | 2606 ft | 85 kts | 50° |
| 2026-04-15 15:47 | 13.02870 | 123.58517 | 2495 ft | 78 kts | 49° |
| 2026-04-15 15:47 | 13.03232 | 123.58914 | 2405 ft | 73 kts | 50° |
| 2026-04-15 15:48 | 13.03573 | 123.59288 | 2321 ft | 72 kts | 50° |
| 2026-04-15 15:48 | 13.03916 | 123.59665 | 2230 ft | 72 kts | 50° |
| 2026-04-15 15:48 | 13.04258 | 123.60041 | 2145 ft | 71 kts | 50° |
| 2026-04-15 15:48 | 13.04600 | 123.60420 | 2053 ft | 72 kts | 50° |
| 2026-04-15 15:49 | 13.04944 | 123.60796 | 1965 ft | 72 kts | 50° |
| 2026-04-15 15:49 | 13.05283 | 123.61169 | 1866 ft | 72 kts | 50° |
| 2026-04-15 15:49 | 13.05627 | 123.61548 | 1775 ft | 71 kts | 50° |
| 2026-04-15 15:49 | 13.05967 | 123.61922 | 1667 ft | 70 kts | 51° |
| 2026-04-15 15:50 | 13.06298 | 123.62286 | 1572 ft | 70 kts | 51° |
| 2026-04-15 15:50 | 13.06633 | 123.62656 | 1488 ft | 71 kts | 51° |
| 2026-04-15 15:50 | 13.06972 | 123.63030 | 1396 ft | 73 kts | 50° |
| 2026-04-15 15:50 | 13.07326 | 123.63421 | 1311 ft | 76 kts | 50° |
| 2026-04-15 15:51 | 13.07698 | 123.63831 | 1206 ft | 78 kts | 50° |
| 2026-04-15 15:51 | 13.08072 | 123.64243 | 1103 ft | 79 kts | 49° |
| 2026-04-15 15:51 | 13.08453 | 123.64664 | 1003 ft | 80 kts | 49° |
| 2026-04-15 15:51 | 13.08826 | 123.65074 | 895 ft | 75 kts | 50° |
| 2026-04-15 15:52 | 13.09175 | 123.65459 | 803 ft | 74 kts | 49° |
| 2026-04-15 15:52 | 13.09523 | 123.65842 | 709 ft | 72 kts | 50° |
| 2026-04-15 15:52 | 13.09846 | 123.66210 | 665 ft | 65 kts | 51° |
| 2026-04-15 15:52 | 13.10175 | 123.66575 | 528 ft | 70 kts | 49° |
| 2026-04-15 15:53 | 13.10470 | 123.66894 | 461 ft | 55 kts | 50° |
| 2026-04-15 15:53 | 13.10733 | 123.67170 | 347 ft | 54 kts | 50° |
| 2026-04-15 15:53 | 13.10939 | 123.67403 | 324 ft | 29 kts | 50° |
| 2026-04-15 15:53 | 13.11058 | 123.67533 | 317 ft | 21 kts | 44° |
| 2026-04-15 15:54 | 13.11163 | 123.67649 | 311 ft | 24 kts | 48° |
| 2026-04-15 15:54 | 13.11285 | 123.67783 | 305 ft | 21 kts | 49° |
| 2026-04-15 15:54 | 13.11300 | 123.67863 | 304 ft | 14 kts | 130° |
| 2026-04-15 15:54 | 13.11233 | 123.67953 | 306 ft | 16 kts | 84° |
| 2026-04-15 15:55 | 13.11306 | 123.68055 | 304 ft | 16 kts | 49° |
| 2026-04-15 15:55 | 13.11288 | 123.68123 | 305 ft | 14 kts | 134° |
| 2026-04-15 15:55 | 13.11270 | 123.68140 | 305 ft | 0 kts | 133° |